Latest Weather Observations for Hogan Island

IDV60801

Issued at 3:32 am EST Wednesday 27 July 2016 (issued every 30 minutes, with the page automatically refreshed every 10 minutes)

About weather observations | Map of weather stations | Latest weather observations for VIC | Other Formats
Station Details ID: 200838 Name: HOGAN ISLAND Lat: -39.22 Lon: 146.98 Height: 116.0 m
Data from the previous 72 hours. | See also: Recent months at Hogan Island
Date/Time
EST
Temp
°C
App
Temp
°C
Dew
Point
°C
Rel
Hum
%
Delta-T
°C
Wind Press
QNH
hPa
Press
MSL
hPa
Rain since
9am
mm
Dir  Spd
km/h
Gust
km/h
Spd
kts
Gust
kts
27/03:30am 9.7 -5.5 4.7 71 2.3 WNW 74 95 40 51 1001.8 - 0.8
27/03:02am 10.0 -4.9 4.4 68 2.5 WNW 72 91 39 49 1001.5 - 0.8
27/03:00am 10.0 -4.5 4.4 68 2.5 WNW 70 83 38 45 1001.8 1001.9 0.8
27/02:57am 10.0 -4.3 4.4 68 2.5 WNW 69 80 37 43 1001.8 - 0.8
27/02:30am 10.1 -0.2 4.5 68 2.5 NW 48 69 26 37 1002.7 - 0.8
27/02:00am 10.0 -1.7 3.5 64 2.9 NW 54 72 29 39 1002.7 - 0.8
27/01:33am 10.1 -1.1 3.8 65 2.8 NW 52 70 28 38 1002.6 - 0.8
27/01:30am 10.1 -0.8 3.8 65 2.8 NW 50 67 27 36 1002.6 - 0.8
27/01:00am 10.0 -2.0 3.5 64 2.9 NW 56 74 30 40 1002.7 - 0.8
27/12:42am 10.0 -1.6 4.0 66 2.7 NW 54 72 29 39 1003.1 - 0.8
27/12:30am 10.0 -1.9 4.2 67 2.6 NW 56 72 30 39 1003.2 - 0.8
27/12:05am 9.7 -2.6 3.4 65 2.7 NW 57 76 31 41 1003.2 - 0.8
27/12:00am 9.6 -2.4 3.6 66 2.6 NW 56 72 30 39 1003.4 1003.5 0.8
 
Date/Time
EST
Temp
°C
App
Temp
°C
Dew
Point
°C
Rel
Hum
%
Delta-T
°C
Wind Press
QNH
hPa
Press
MSL
hPa
Rain since
9am
mm
Dir  Spd
km/h
Gust
km/h
Spd
kts
Gust
kts
26/11:38pm 9.6 -3.0 3.6 66 2.6 NW 59 78 32 42 1003.4 - 0.8
26/11:30pm 9.4 -4.4 3.2 65 2.7 NW 65 78 35 42 1003.2 - 0.8
26/11:00pm 9.5 -3.8 3.9 68 2.5 NW 63 78 34 42 1003.7 - 0.8
26/10:31pm 9.3 -3.3 3.5 67 2.5 NW 59 78 32 42 1004.0 - 0.8
26/10:30pm 9.3 -3.7 3.5 67 2.5 NW 61 78 33 42 1003.9 - 0.8
26/10:00pm 9.4 -2.6 4.0 69 2.4 NW 56 78 30 42 1004.2 - 0.8
26/09:30pm 9.3 -4.1 3.3 66 2.6 NW 63 87 34 47 1004.3 - 0.8
26/09:05pm 9.4 -2.3 3.6 67 2.5 NW 54 72 29 39 1004.5 - 0.8
26/09:00pm 9.3 -2.8 3.3 66 2.6 NW 56 70 30 38 1004.4 1004.5 0.8
26/08:43pm 9.4 -2.2 3.8 68 2.5 WNW 54 72 29 39 1004.6 - 0.8
26/08:30pm 9.4 -3.2 3.6 67 2.5 NW 59 72 32 39 1004.4 - 0.8
26/08:03pm 9.0 -3.3 3.0 66 2.6 NW 57 76 31 41 1005.0 - 0.8
26/08:00pm 9.0 -3.7 2.8 65 2.7 NW 59 76 32 41 1004.9 - 0.8
26/07:30pm 8.9 -4.2 2.9 66 2.6 NW 61 87 33 47 1005.1 - 0.8
26/07:29pm 8.9 -4.2 2.9 66 2.6 NW 61 87 33 47 1005.0 - 0.8
26/07:00pm 9.0 -4.5 3.0 66 2.6 WNW 63 76 34 41 1005.1 - 0.8
26/06:30pm 9.0 -5.6 2.8 65 2.7 WNW 69 80 37 43 1004.9 - 0.8
26/06:22pm 9.0 -5.6 2.8 65 2.7 WNW 69 87 37 47 1005.0 - 0.8
26/06:00pm 8.9 -5.7 2.9 66 2.6 WNW 69 80 37 43 1004.9 1005.0 0.8
26/05:30pm 8.8 -5.2 2.4 64 2.7 WNW 65 80 35 43 1004.9 - 0.8
26/05:00pm 8.9 -5.4 2.7 65 2.6 WNW 67 82 36 44 1005.0 - 0.8
26/04:45pm 8.8 -6.4 2.6 65 2.6 WNW 72 91 39 49 1005.3 - 0.8
26/04:30pm 8.8 -6.4 2.6 65 2.6 WNW 72 83 39 45 1005.1 - 0.8
26/04:00pm 9.0 -6.1 3.4 68 2.4 WNW 72 83 39 45 1005.4 - 0.8
26/03:30pm 8.8 -6.0 3.0 67 2.5 WNW 70 87 38 47 1005.3 - 0.8
26/03:18pm 8.8 -5.7 3.4 69 2.3 WNW 69 87 37 47 1005.7 - 0.8
26/03:00pm 8.8 -6.7 3.4 69 2.3 WNW 74 85 40 46 1005.6 1005.7 0.8
26/02:36pm 8.9 -6.9 3.7 70 2.3 WNW 76 95 41 51 1005.7 - 0.8
26/02:30pm 9.0 -6.8 4.0 71 2.2 WNW 76 87 41 47 1006.1 - 0.8
26/02:00pm 8.9 -7.3 3.9 71 2.2 WNW 78 93 42 50 1006.1 - 0.8
26/01:30pm 8.6 -7.9 4.2 74 1.9 WNW 80 93 43 50 1006.1 - 0.8
26/01:00pm 7.8 -6.5 4.7 81 1.4 WNW 69 85 37 46 1006.8 - 0.8
26/12:48pm 7.8 -6.7 4.4 79 1.5 WNW 70 91 38 49 1007.0 - 0.8
26/12:30pm 7.7 -5.4 4.8 82 1.3 WNW 63 78 34 42 1007.6 - 0.8
26/12:10pm 7.1 -6.8 4.8 85 1.0 WNW 67 85 36 46 1007.2 - 0.8
26/12:00pm 7.3 -5.4 5.3 87 0.9 WNW 61 76 33 41 1007.6 1007.7 0.6
26/11:31am 6.6 -7.7 4.8 88 0.8 WNW 69 87 37 47 1008.0 - 0.6
26/11:30am 6.4 -8.1 4.6 88 0.8 WNW 70 87 38 47 1007.8 - 0.6
26/11:00am 6.7 -9.3 4.7 87 0.9 WNW 78 100 42 54 1007.4 - 0.4
26/10:48am 7.4 -7.9 4.5 82 1.3 WNW 74 95 40 51 1006.8 - 0.0
26/10:30am 8.1 -4.9 5.4 83 1.2 WNW 63 78 34 42 1007.3 - 0.0
26/10:24am 7.7 -4.3 5.0 83 1.2 WNW 57 78 31 42 1007.3 - 0.0
26/10:00am 7.6 -5.4 5.4 86 1.0 WNW 63 76 34 41 1007.3 - 0.0
26/09:30am 7.9 -5.2 5.0 82 1.3 W 63 76 34 41 1007.0 - 0.0
26/09:00am 7.9 -6.8 3.8 75 1.8 W 70 93 38 50 1006.5 1006.6 16.2
26/08:34am 7.3 -8.9 3.9 79 1.5 W 78 96 42 52 1006.0 - 16.2
26/08:30am 7.5 -7.5 4.1 79 1.5 W 72 89 39 48 1006.1 - 16.2
26/08:20am 9.2 -6.0 4.8 74 2.0 W 74 93 40 50 1006.1 - 16.2
26/08:00am 8.3 -5.9 6.1 86 1.0 W 70 82 38 44 1005.7 - 16.2
26/07:30am 7.5 -7.9 6.0 90 0.7 W 76 91 41 49 1005.1 - 16.2
26/07:16am 7.4 -11.5 4.4 81 1.3 W 93 111 50 60 1004.3 - 16.0
26/07:01am 7.9 -6.3 5.0 82 1.3 W 69 89 37 48 1005.0 - 15.8
26/07:00am 7.9 -6.0 5.0 82 1.3 W 67 82 36 44 1005.1 - 15.8
26/06:40am 8.2 -8.7 4.0 75 1.8 W 82 107 44 58 1004.3 - 15.8
26/06:30am 8.1 -9.0 3.8 74 1.9 W 83 96 45 52 1004.0 - 15.8
26/06:13am 7.9 -9.8 4.5 79 1.5 W 87 106 47 57 1003.5 - 15.8
26/06:01am 8.1 -11.7 4.7 79 1.5 W 98 107 53 58 1003.3 - 15.8
26/06:00am 8.0 -7.6 4.8 80 1.4 W 76 107 41 58 1003.2 1003.2 15.8
26/05:58am 8.1 -6.3 5.0 81 1.4 W 70 93 38 50 1003.8 - 15.8
26/05:47am 6.9 -7.5 4.0 82 1.3 W 69 107 37 58 1003.8 - 15.8
26/05:43am 6.4 -11.9 3.6 82 1.2 WSW 89 115 48 62 1003.8 - 15.8
26/05:30am 7.0 -9.9 4.0 81 1.3 W 82 109 44 59 1003.0 - 15.8
26/05:24am 7.3 -8.8 4.1 80 1.4 WNW 78 104 42 56 1002.7 - 15.8
26/05:20am 6.9 -9.3 3.7 80 1.4 WNW 78 100 42 54 1003.0 - 15.8
26/05:09am 6.1 -14.3 3.4 83 1.1 W 100 119 54 64 1002.0 - 15.8
26/05:07am 6.6 -14.9 3.8 82 1.2 W 106 119 57 64 1001.3 - 15.8
26/05:05am 8.5 -8.3 5.6 82 1.3 WNW 83 104 45 56 1002.4 - 15.8
26/05:00am 8.3 -7.5 5.6 83 1.2 WNW 78 95 42 51 1002.2 - 15.8
26/04:40am 7.8 -8.9 6.1 89 0.8 WNW 83 102 45 55 1002.2 - 15.8
26/04:30am 7.1 -9.1 5.7 91 0.6 WNW 80 96 43 52 1001.7 - 15.6
26/04:27am 7.1 -8.3 5.9 92 0.5 W 76 96 41 52 1002.1 - 15.6
26/04:23am 6.8 -8.6 5.6 92 0.5 W 76 100 41 54 1002.3 - 15.6
26/04:00am 5.9 -13.6 3.2 83 1.1 W 95 115 51 62 1001.6 - 13.2
26/03:52am 8.6 -10.8 5.0 78 1.6 W 96 115 52 62 1000.9 - 12.8
26/03:51am 8.7 -11.4 5.3 79 1.5 W 100 115 54 62 1000.7 - 12.8
26/03:45am 8.3 -7.5 5.6 83 1.2 WNW 78 109 42 59 1001.0 - 12.8
26/03:30am 7.7 -10.3 5.3 85 1.1 WNW 89 106 48 57 1001.1 - 12.8
26/03:00am 7.0 -11.6 5.9 93 0.5 WNW 93 122 50 66 1000.4 1000.5 12.6
26/02:30am 4.3 -13.3 3.3 93 0.4 W 85 113 46 61 1001.4 - 11.6
26/02:01am 6.9 -9.7 6.2 95 0.3 W 83 104 45 56 1000.6 - 11.2
26/02:00am 6.8 -9.7 6.1 95 0.3 W 82 98 44 53 1000.7 - 11.2
26/01:30am 5.5 -12.5 3.3 86 0.9 W 87 107 47 58 1000.5 - 6.6
26/01:00am 7.5 -10.6 4.5 81 1.3 WNW 89 111 48 60 999.4 - 6.0
26/12:31am 6.8 -10.1 5.0 88 0.8 WNW 83 102 45 55 1000.1 - 5.6
26/12:30am 6.6 -10.7 4.9 89 0.7 WNW 85 102 46 55 999.9 - 5.6
26/12:00am 8.2 -11.7 4.2 76 1.8 WNW 98 120 53 65 999.2 999.3 4.8
 
Date/Time
EST
Temp
°C
App
Temp
°C
Dew
Point
°C
Rel
Hum
%
Delta-T
°C
Wind Press
QNH
hPa
Press
MSL
hPa
Rain since
9am
mm
Dir  Spd
km/h
Gust
km/h
Spd
kts
Gust
kts
25/11:30pm 7.6 -12.8 5.7 88 0.9 WNW 102 128 55 69 999.4 - 4.8
25/11:24pm 7.6 -14.0 6.2 91 0.6 WNW 109 128 59 69 998.8 - 4.8
25/11:19pm 7.4 -14.9 6.2 92 0.5 WNW 113 124 61 67 998.3 - 4.8
25/11:14pm 7.2 -11.4 6.1 93 0.5 W 93 124 50 67 998.9 - 4.8
25/11:10pm 6.9 -11.3 5.8 93 0.5 W 91 135 49 73 999.3 - 4.8
25/11:03pm 5.6 -17.5 4.4 92 0.5 W 115 135 62 73 998.7 - 4.8
25/11:01pm 5.1 -19.4 3.9 92 0.5 W 122 135 66 73 998.2 - 4.6
25/11:00pm 6.5 -12.6 5.3 92 0.5 W 95 135 51 73 998.3 - 4.6
25/10:33pm 6.7 -12.9 5.7 93 0.4 W 98 133 53 72 998.8 - 4.4
25/10:30pm 5.9 -17.9 4.9 93 0.4 W 119 146 64 79 998.5 - 4.4
25/10:19pm 6.3 -18.1 2.6 77 1.5 W 120 152 65 82 997.0 - 4.0
25/10:05pm 8.5 -9.8 5.4 81 1.4 WNW 91 126 49 68 997.5 - 4.0
25/10:02pm 8.6 -9.2 5.9 83 1.2 W 89 107 48 58 998.5 - 4.0
25/10:00pm 8.8 -9.0 6.2 84 1.2 W 89 102 48 55 998.9 - 4.0
25/09:30pm 6.6 -11.0 5.2 91 0.6 WNW 87 120 47 65 998.5 - 4.0
25/09:29pm 6.6 -10.6 5.2 91 0.6 WNW 85 120 46 65 998.2 - 4.0
25/09:09pm 7.5 -8.9 6.6 94 0.4 WNW 82 100 44 54 998.9 - 3.8
25/09:00pm 7.8 -9.8 6.9 94 0.4 WNW 89 104 48 56 998.6 998.7 3.4
25/08:34pm 5.5 -13.7 3.0 84 1.0 WNW 93 133 50 72 997.8 - 2.6
25/08:30pm 9.7 -8.2 5.7 76 1.8 WNW 89 109 48 59 998.0 - 1.8
25/08:00pm 9.4 -6.9 6.7 83 1.3 NW 82 124 44 67 997.6 - 1.8
25/07:53pm 9.1 -7.3 6.4 83 1.3 NW 82 124 44 67 997.6 - 1.8
25/07:38pm 9.3 -12.0 5.9 79 1.6 NW 107 146 58 79 996.4 - 1.8
25/07:30pm 10.0 -6.6 6.2 77 1.8 NW 83 119 45 64 997.7 - 1.6
25/07:24pm 9.9 -6.8 5.7 75 1.9 NW 83 119 45 64 997.1 - 1.6
25/07:00pm 11.3 -3.9 5.0 65 2.9 NW 74 95 40 51 997.7 - 1.6
25/06:30pm 11.4 -2.3 3.9 60 3.4 NNW 65 85 35 46 998.1 - 1.6
25/06:00pm 11.3 -1.9 4.7 64 3.0 NW 63 83 34 45 998.7 998.8 1.6
25/05:54pm 11.3 -0.7 4.7 64 3.0 NNW 57 76 31 41 998.8 - 1.6
25/05:30pm 11.1 -1.3 4.6 64 3.0 NW 59 74 32 40 999.4 - 1.6
25/05:00pm 10.8 -1.6 4.7 66 2.8 NW 59 74 32 40 999.8 - 1.6
25/04:30pm 10.6 -2.9 4.9 68 2.6 NW 65 83 35 45 999.7 - 1.6
25/04:05pm 10.9 -1.7 5.7 70 2.4 NW 61 80 33 43 999.4 - 1.6
25/04:00pm 10.8 -1.9 5.3 69 2.5 WNW 61 76 33 41 999.6 - 1.6
25/03:30pm 10.6 -2.4 5.4 70 2.4 NW 63 76 34 41 1000.9 - 1.6
25/03:14pm 10.6 -2.3 6.0 73 2.1 WNW 63 82 34 44 1001.1 - 1.6
25/03:00pm 10.8 -1.3 6.2 73 2.2 WNW 59 72 32 39 1001.1 1001.2 1.6
25/02:30pm 11.0 -0.7 7.7 80 1.6 WNW 59 74 32 40 1001.5 - 1.6
25/02:00pm 10.4 -1.3 7.8 84 1.3 WNW 59 69 32 37 1001.7 - 1.6
25/01:38pm 9.9 -0.8 8.2 89 0.8 WNW 54 72 29 39 1001.8 - 1.6
25/01:30pm 9.8 -0.1 8.2 90 0.8 WNW 50 59 27 32 1002.1 - 1.6
25/01:00pm 9.7 -1.6 7.8 88 0.9 WNW 57 65 31 35 1002.6 - 0.6
25/12:30pm 10.1 -2.4 7.7 85 1.2 WNW 63 76 34 41 1002.5 - 0.0
25/12:00pm 10.5 -1.5 8.1 85 1.2 WNW 61 69 33 37 1002.9 1002.9 0.0
25/11:30am 9.8 -3.1 7.6 86 1.1 WNW 65 74 35 40 1002.9 - 0.0
25/11:00am 10.3 -3.3 7.7 84 1.3 WNW 69 80 37 43 1003.2 - 0.0
25/10:30am 9.7 -4.7 7.1 84 1.2 WNW 72 83 39 45 1003.0 - 0.0
25/10:00am 9.5 -4.4 6.6 82 1.4 WNW 69 80 37 43 1003.2 - 0.0
25/09:30am 9.4 -4.5 6.5 82 1.4 WNW 69 80 37 43 1003.1 - 0.0
25/09:01am 9.1 -3.0 6.2 82 1.3 WNW 59 78 32 42 1003.1 - 0.0
25/09:00am 9.2 -2.9 6.3 82 1.4 WNW 59 74 32 40 1003.1 1003.1 0.0
25/08:59am 9.1 -3.0 6.2 82 1.3 WNW 59 78 32 42 1003.1 - 0.0
25/08:30am 9.1 -4.2 6.0 81 1.4 WNW 65 78 35 42 1002.9 - 0.0
25/08:00am 9.3 -4.0 6.0 80 1.5 WNW 65 74 35 40 1002.9 - 0.0
25/07:30am 9.0 -5.7 5.6 79 1.6 WNW 72 83 39 45 1002.7 - 0.0
25/07:00am 9.1 -4.3 5.5 78 1.6 WNW 65 76 35 41 1002.7 - 0.0
25/06:30am 8.9 -4.1 5.3 78 1.6 WNW 63 76 34 41 1002.6 - 0.0
25/06:00am 8.9 -4.2 4.9 76 1.8 WNW 63 76 34 41 1002.6 1002.6 0.0
25/05:40am 8.9 -3.1 4.7 75 1.9 WNW 57 76 31 41 1002.4 - 0.0
25/05:30am 8.9 -3.1 4.9 76 1.8 WNW 57 70 31 38 1002.6 - 0.0
25/05:00am 8.8 -3.6 4.6 75 1.9 WNW 59 72 32 39 1002.4 - 0.0
25/04:30am 8.7 -3.2 4.3 74 1.9 WNW 56 70 30 38 1002.3 - 0.0
25/04:00am 8.7 -2.8 4.5 75 1.9 WNW 54 65 29 35 1002.2 - 0.0
25/03:30am 8.8 -2.7 4.4 74 1.9 WNW 54 63 29 34 1002.3 - 0.0
25/03:00am 8.9 -3.1 4.5 74 2.0 WNW 57 65 31 35 1002.6 1002.6 0.0
25/02:30am 9.0 -3.1 4.4 73 2.0 WNW 57 69 31 37 1002.6 - 0.0
25/02:00am 9.0 -1.7 4.4 73 2.0 WNW 50 63 27 34 1002.8 - 0.0
25/01:30am 9.1 -1.3 4.1 71 2.2 NW 48 61 26 33 1002.9 - 0.0
25/01:05am 9.3 -0.2 4.1 70 2.3 NW 43 61 23 33 1002.9 - 0.0
25/01:00am 9.4 0.3 4.0 69 2.4 NW 41 56 22 30 1003.0 - 0.0
25/12:30am 9.4 -1.1 3.6 67 2.5 NW 48 61 26 33 1003.0 - 0.0
25/12:00am 9.5 1.5 3.9 68 2.5 NNW 35 46 19 25 1003.2 1003.2 0.0
 
Date/Time
EST
Temp
°C
App
Temp
°C
Dew
Point
°C
Rel
Hum
%
Delta-T
°C
Wind Press
QNH
hPa
Press
MSL
hPa
Rain since
9am
mm
Dir  Spd
km/h
Gust
km/h
Spd
kts
Gust
kts
24/11:39pm 9.6 2.9 3.8 67 2.6 NNW 28 48 15 26 1003.4 - 0.0
24/11:30pm 9.6 2.5 3.6 66 2.6 NNW 30 43 16 23 1003.5 - 0.0
24/11:00pm 9.5 2.8 3.7 67 2.5 N 28 39 15 21 1003.8 - 0.0
24/10:30pm 9.2 2.2 4.0 70 2.3 N 30 37 16 20 1003.9 - 0.0
24/10:00pm 9.2 2.5 3.6 68 2.4 N 28 37 15 20 1004.0 - 0.0
24/09:30pm 9.5 3.2 3.7 67 2.5 NNW 26 41 14 22 1004.4 - 0.0
24/09:00pm 9.7 2.2 3.4 65 2.8 NNW 32 43 17 23 1004.4 1004.5 0.0
24/08:30pm 9.9 3.6 3.6 65 2.8 NNW 26 37 14 20 1004.5 - 0.0
24/08:00pm 9.6 1.5 3.1 64 2.8 NW 35 46 19 25 1004.7 - 0.0
24/07:30pm 9.7 1.2 3.4 65 2.7 NW 37 46 20 25 1004.7 - 0.0
24/07:00pm 9.7 1.2 3.4 65 2.7 NW 37 48 20 26 1004.8 - 0.0
24/06:30pm 9.7 0.9 3.7 66 2.6 NW 39 46 21 25 1004.9 - 0.0
24/06:00pm 9.8 0.6 3.5 65 2.8 NW 41 57 22 31 1004.9 1005.0 0.0
24/05:30pm 9.8 -0.7 3.5 65 2.8 NW 48 63 26 34 1004.9 - 0.0
24/05:00pm 9.8 -0.8 3.3 64 2.8 NW 48 63 26 34 1004.8 - 0.0
24/04:30pm 10.0 -1.9 4.4 68 2.5 WNW 56 65 30 35 1004.8 - 0.0
24/04:00pm 10.2 -1.0 3.9 65 2.8 WNW 52 70 28 38 1004.8 - 0.0
24/03:53pm 9.9 -0.9 3.9 66 2.7 WNW 50 69 27 37 1005.1 - 0.0
24/03:30pm 9.7 -1.6 3.7 66 2.6 WNW 52 59 28 32 1005.2 - 0.0
24/03:00pm 10.2 -1.1 3.7 64 2.9 WNW 52 59 28 32 1005.5 1005.6 0.0
24/02:30pm 9.8 -1.9 3.3 64 2.8 WNW 54 65 29 35 1005.5 - 0.0
24/02:00pm 9.9 -0.2 3.6 65 2.8 WNW 46 57 25 31 1006.1 - 0.0
24/01:30pm 10.7 0.8 4.8 67 2.7 WNW 46 59 25 32 1006.2 - 0.0
24/01:00pm 9.8 0.1 4.0 67 2.6 WNW 44 57 24 31 1006.7 - 0.0
24/12:30pm 9.9 0.8 4.1 67 2.6 NW 41 50 22 27 1007.1 - 0.0
24/12:00pm 9.2 -1.3 3.4 67 2.5 WNW 48 59 26 32 1007.4 1007.5 0.0
24/11:30am 8.7 -2.2 3.3 69 2.3 WNW 50 59 27 32 1007.7 - 0.0
24/11:00am 8.7 -1.0 3.9 72 2.1 WNW 44 57 24 31 1008.1 - 0.0
24/10:30am 8.2 -1.9 3.7 73 2.0 WNW 46 59 25 32 1008.3 - 0.0
24/10:00am 8.3 -2.5 3.9 74 1.9 WNW 50 59 27 32 1008.3 - 0.0
24/09:30am 7.8 -3.0 4.0 77 1.7 WNW 50 59 27 32 1008.5 - 0.0
24/09:00am 7.6 -3.9 4.4 80 1.4 WNW 54 61 29 33 1008.5 1008.6 5.0
24/08:30am 7.5 -2.1 4.6 82 1.3 WNW 44 50 24 27 1008.7 - 5.0
24/08:00am 7.4 -2.1 5.0 85 1.1 WNW 44 54 24 29 1008.6 - 5.0
24/07:30am 7.1 -2.2 4.9 86 1.0 WNW 43 50 23 27 1008.6 - 5.0
24/07:00am 7.0 -2.3 5.0 87 0.9 WNW 43 54 23 29 1008.8 - 5.0
24/06:30am 6.8 -3.9 4.5 85 1.0 WNW 50 61 27 33 1008.6 - 4.8
24/06:00am 7.4 -3.7 4.5 82 1.3 WNW 52 61 28 33 1008.3 1008.4 4.6
24/05:30am 7.6 -2.3 4.6 81 1.3 WNW 46 57 25 31 1008.3 - 4.6
24/05:00am 7.3 -4.2 4.6 83 1.2 WNW 54 63 29 34 1008.4 - 4.6
24/04:30am 7.7 -2.6 4.7 81 1.3 WNW 48 57 26 31 1008.4 - 4.6
24/04:00am 7.7 -1.4 4.1 78 1.6 WNW 41 52 22 28 1008.5 - 4.6

Other Formats:

Comma delimited format used in spreadsheet applications
http://www.bom.gov.au/fwo/IDV60801/IDV60801.94949.axf

JavaScript Object Notation format (JSON) in row-major order
http://www.bom.gov.au/fwo/IDV60801/IDV60801.94949.json